フランクフルト の空港の天気 - METARとTAF

フランクフルト国際空港 ( EDDF / FRA ) - ドイツ フランクフルト・アム・マイン
飛行場実況気象(Metar)
観測時間04/21 18:50 CEST (04/21 16:50 UTC)
風向・風速東 4m/s
視程10km以上
天気現象
なし
気温24℃
湿度18%
気圧1015hPa
METAREDDF 211650Z 10007KT 060V130 CAVOK 24/M02 Q1015 NOSIG
過去の天気等 Google飛行場航空写真 Wunderground天気予報

過去48時間のMETAR

飛行場予報(TAF)
発表時間: 4/21 13:00 CEST (4/21 11:00 UTC)
予報対象時間: 21日14時 CEST ~ 22日20時 CEST
風向・風速東 4m/s
視程10km以上
なし
21日19時 CEST ~ 21日21時 CEST に徐々に
風向・風速北北東 4m/s
22日11時 CEST ~ 22日13時 CEST に徐々に
風向・風速東 7m/s
22日15時 CEST ~ 22日18時 CEST に 確率 30% で一時的に
風向・風速東 8m/s 瞬間風速 13m/s
TAF EDDF 211100Z 2112/2218 09008KT CAVOK
BECMG 2117/2119 03008KT
BECMG 2209/2211 08013KT
PROB30 TEMPO 2213/2216 08015G25KT